Arbúcies





Hora UTC 09:40
Temperatura 13.9 ºC
Humitat 84.7 %
Pressió 1013.0 hPa
Pluja 2.2 mm
Velocitat vent 6.3 km/h
Direcció vent ENE
Radiació solar 870.0 W/m²

Dades diàries 2021-05-14



Hora UTC (hivern +1h; estiu +2h)
Temperatura (ºC) Humitat (%) Pressió (hPa) Velocitat vent (km/h) Precipitació (mm) Radiació solar (W/m²)
Hora UTC Aire Humitat Pressió Vel. Dir. Vel. Max Dir. Intent. màx 5 min. Rad. Sol.
00:05 11.6 77.6 1012.0 3.8 SW 6.0 SW 0.0 0.0
00:10 11.4 78.1 1012.0 3.6 SW 5.3 SW 0.0 0.0
00:15 11.4 78.6 1011.0 4.3 SW 6.4 SW 0.0 0.0
00:20 11.3 79.0 1012.0 6.8 SW 8.8 SSW 0.0 0.0
00:25 11.4 78.1 1011.0 7.6 SW 9.2 SSW 0.0 0.0
00:30 11.4 77.3 1012.0 6.0 SW 8.5 WSW 0.0 0.0
00:35 11.5 77.2 1011.0 5.7 SSW 8.1 SSW 0.0 0.0
00:40 11.4 77.1 1012.0 7.3 SSW 9.5 SSW 0.0 0.0
00:45 11.3 77.4 1011.0 8.4 SSW 10.2 SSW 0.0 0.0
00:50 11.2 77.5 1012.0 7.2 SSW 9.5 SW 0.0 0.0
00:55 11.0 77.8 1012.0 5.0 SW 7.1 SW 0.0 0.0
01:00 10.7 78.4 1012.0 4.0 SSW 5.6 SSW 0.0 0.0
01:05 10.5 79.3 1012.0 3.4 SSW 5.6 SSW 0.0 0.0
01:10 10.3 80.1 1011.0 5.5 SSW 8.1 SW 0.0 0.0
01:15 10.2 81.0 1011.0 7.1 SW 9.2 SW 0.0 0.0
01:20 10.0 81.4 1012.0 6.5 SW 9.2 SW 0.0 0.0
01:25 10.0 82.0 1011.0 7.1 SSW 9.9 SW 0.0 0.0
01:30 10.2 81.7 1011.0 7.5 SSW 12.0 SW 0.0 0.0
01:35 10.1 81.1 1011.0 7.6 SW 9.9 SSW 0.0 0.0
01:40 10.0 81.8 1011.0 7.4 SW 10.9 SW 0.0 0.0
01:45 10.0 82.0 1011.0 7.4 SW 10.2 SW 0.0 0.0
01:50 9.9 82.1 1012.0 6.4 SW 8.8 SW 0.0 0.0
01:55 9.8 82.6 1011.0 6.0 SW 8.5 SSW 0.0 0.0
02:00 9.8 83.0 1011.0 8.5 SW 14.5 SW 0.0 0.0
02:05 10.0 82.3 1011.0 7.1 SW 10.2 SSW 0.0 0.0
02:10 9.9 82.3 1011.0 7.2 SW 10.6 SSW 0.0 0.0
02:15 9.9 83.1 1011.0 7.6 SW 10.6 SSW 0.0 0.0
02:20 10.2 81.9 1012.0 8.0 SSW 12.3 SW 0.0 0.0
02:25 10.3 80.8 1011.0 8.2 SSW 10.6 SW 0.0 0.0
02:30 10.5 79.8 1011.0 8.9 SW 11.6 SW 0.0 0.0
02:35 10.6 78.9 1011.0 7.2 SW 13.4 SSW 0.0 0.0
02:40 10.6 79.0 1011.0 6.8 SSW 9.2 SSW 0.0 0.0
02:45 10.7 78.7 1011.0 6.8 SW 10.6 SSW 0.0 0.0
02:50 10.7 78.9 1012.0 5.2 SW 8.8 SW 0.0 0.0
02:55 10.7 79.2 1011.0 7.0 SSW 8.8 SSW 0.0 0.0
03:00 10.8 79.1 1011.0 7.1 SSW 9.9 SW 0.0 0.0
03:05 10.7 79.7 1011.0 6.9 SSW 9.2 SW 0.0 0.0
03:10 10.8 79.4 1011.0 7.7 SSW 12.0 SSW 0.0 0.0
03:15 10.9 78.8 1011.0 6.5 SSW 9.5 SSW 0.0 0.0
03:20 11.0 78.5 1012.0 5.1 SSW 7.8 SW 0.0 0.0
03:25 11.0 78.8 1011.0 5.3 SW 7.4 SSW 0.0 0.0
03:30 10.9 79.4 1011.0 5.7 SSW 8.8 SW 0.0 0.0
03:35 11.0 78.9 1011.0 5.5 SSW 8.1 SSW 0.0 0.0
03:40 11.1 78.7 1011.0 6.2 SSW 7.8 SW 0.0 0.0
03:45 11.1 79.0 1011.0 4.5 SSW 7.4 SW 0.0 0.0
03:50 11.1 79.2 1012.0 3.7 SW 6.4 SW 0.0 0.0
03:55 11.0 79.4 1012.0 4.0 SSW 6.4 SSW 0.0 0.0
04:00 11.1 79.3 1012.0 3.5 SW 6.0 SSW 0.0 0.0
04:05 11.1 80.2 1012.0 2.8 SW 6.0 SW 0.0 0.0
04:10 11.0 80.8 1011.0 1.7 SW 2.8 WSW 0.0 0.0
04:15 10.9 81.3 1012.0 0.5 W 1.8 W 0.0 0.0
04:20 10.9 81.7 1012.0 1.8 SW 3.5 SW 0.0 0.0
04:25 10.9 82.0 1012.0 3.0 SSW 4.2 SSW 0.0 0.0
04:30 10.9 82.2 1012.0 2.3 SW 3.9 SW 0.0 0.5
04:35 10.9 82.5 1012.0 1.7 WSW 3.5 WSW 0.0 0.4
04:40 10.9 82.8 1012.0 0.4 WSW 1.8 WSW 0.0 1.4
04:45 10.8 82.9 1012.0 3.4 SW 6.0 SSW 0.0 2.8
04:50 10.8 83.4 1012.0 3.3 SW 6.0 SSW 0.0 3.9
04:55 10.9 83.6 1011.0 1.8 SW 2.8 WSW 0.0 6.0
05:00 10.9 83.7 1012.0 2.4 SSW 3.9 S 0.0 8.7
05:05 11.0 83.7 1012.0 2.6 SSW 4.2 S 0.0 8.8
05:10 11.1 83.6 1012.0 3.9 SW 5.6 WSW 0.0 9.1
05:15 11.1 83.6 1012.0 4.0 SW 6.0 SW 0.0 11.6
05:20 11.1 83.3 1012.0 4.4 SSW 5.6 SSW 0.0 15.1
05:25 11.2 83.1 1012.0 2.8 SW 4.6 SW 0.0 17.7
05:30 11.3 83.0 1012.0 2.0 SW 3.9 SW 0.0 21.9
05:35 11.3 83.2 1012.0 1.6 WSW 3.5 SW 0.0 32.9
05:40 11.3 83.2 1012.0 3.3 SSW 4.9 SW 0.0 48.1
05:45 11.4 83.2 1013.0 3.3 SW 4.6 SW 0.0 60.3
05:50 11.5 82.5 1012.0 3.5 SSW 4.9 SW 0.0 55.4
05:55 11.7 81.5 1012.0 1.4 SSW 3.2 SSW 0.0 68.5
06:00 11.8 81.3 1012.0 1.5 W 2.8 W 0.0 98.4
06:05 11.9 82.1 1012.0 0.6 WNW 2.1 WNW 0.0 91.9
06:10 12.1 82.1 1012.0 0.0 W 0.4 WSW 0.0 54.8
06:15 12.2 80.7 1013.0 2.4 ENE 4.9 E 0.0 47.9
06:20 12.4 78.8 1012.0 1.3 NE 3.9 ENE 0.0 48.1
06:25 12.6 78.3 1012.0 0.0 NNW 0.7 NNW 0.0 69.4
06:30 12.6 78.3 1012.0 1.1 NW 2.5 WNW 0.0 65.0
06:35 12.5 78.9 1012.0 1.0 NNE 2.8 NE 0.0 48.7
06:40 12.5 78.9 1012.0 0.9 NW 2.5 W 0.0 40.1
06:45 12.5 80.5 1013.0 1.0 SSW 2.5 SSW 0.1 40.6
06:50 12.5 81.4 1012.0 1.4 NE 3.5 NE 0.1 39.2
06:55 12.3 82.0 1012.0 1.9 N 3.2 N 0.2 36.1
07:00 12.1 83.2 1013.0 1.5 W 4.6 NNW 0.1 20.7
07:05 11.9 84.0 1013.0 0.2 WSW 1.4 WSW 0.2 19.3
07:10 11.8 84.8 1013.0 0.0 WNW 1.1 WNW 0.1 29.6
07:15 11.8 85.5 1014.0 2.4 WSW 5.6 SW 0.0 42.1
07:20 11.8 86.5 1013.0 3.2 SW 5.6 SW 0.0 39.9
07:25 11.8 87.0 1013.0 0.8 SE 2.8 SSE 0.2 71.2
07:30 11.8 87.7 1013.0 0.0 ESE 0.4 SE 0.0 75.9
07:35 11.9 88.3 1013.0 0.0 SSW 0.4 E 0.0 96.2
07:40 12.0 89.1 1013.0 3.5 NNW 5.3 N 0.1 150.3
07:45 12.1 89.2 1014.0 2.7 NNW 7.1 NNW 0.0 101.4
07:50 11.9 88.7 1013.0 3.2 NW 8.5 NNW 0.0 91.5
07:55 11.9 89.0 1013.0 1.4 NNW 3.9 NNE 0.1 80.9
08:00 11.8 89.2 1013.0 0.0 NNW 0.4 NE 0.4 71.8
08:05 11.9 89.3 1013.0 1.6 SW 3.9 SW 0.5 111.4
08:10 11.9 89.7 1013.0 0.3 W 1.8 W 0.1 153.8
08:15 11.8 89.8 1014.0 0.4 NE 2.5 N 0.0 368.3
08:20 12.1 89.9 1013.0 1.8 SE 3.9 SSE 0.0 494.2
08:25 12.2 89.6 1013.0 1.0 ESE 3.5 ESE 0.0 250.3
08:30 12.5 89.4 1013.0 1.1 E 2.5 E 0.0 297.1
08:35 12.8 89.7 1013.0 0.7 SE 2.5 SE 0.0 707.0
08:40 13.4 89.7 1013.0 1.6 ESE 4.2 NE 0.0 602.8
08:45 13.5 87.4 1014.0 1.8 NE 4.2 ENE 0.0 710.3
08:50 14.1 86.5 1013.0 5.8 NE 12.7 NE 0.0 596.2
08:55 14.0 85.4 1013.0 5.6 NNE 12.0 N 0.0 721.4
09:00 14.1 84.9 1013.0 6.2 NNE 12.3 NNE 0.0 644.1
09:05 14.1 84.3 1013.0 7.7 NE 16.9 ENE 0.0 869.0
09:10 14.1 82.6 1013.0 10.5 NE 17.6 NE 0.0 515.6
09:15 13.7 82.7 1014.0 11.1 NE 22.6 ENE 0.0 660.9
09:20 14.1 85.4 1013.0 8.9 NE 18.0 ENE 0.0 934.0
09:25 14.4 84.6 1013.0 8.5 NNE 19.8 ENE 0.0 1052.0
09:30 14.4 82.8 1013.0 9.8 NNE 17.3 N 0.0 658.9
09:35 13.8 83.5 1013.0 6.7 NNE 17.6 NE 0.0 346.0
09:40 13.9 84.7 1013.0 6.3 ENE 13.8 ENE 0.0 870.0
Màxima 14.4 89.9 1014.0 11.1 NE 22.6 ENE 0.5 1052.0
Mínima 9.8 77.1 1011.0
Total 2.2